Time;durP1;ratioP1;P1;durP2;ratioP2;P2;SDS_P1;SDS_P2;PMS_P1;PMS_P2;Temp;Humidity;BMP_temperature;BMP_pressure;BME280_temperature;BME280_humidity;BME280_pressure;Samples;Min_cycle;Max_cycle;Signal;HPM_P1;HPM_P2
2023/07/10 00:00:52;;;;;;;11.73;8.47;;;21.40;99.90;;;;;;5076365;28;20201;-90
2023/07/10 00:03:19;;;;;;;13.30;9.17;;;21.30;99.90;;;;;;5059967;28;20182;-91
2023/07/10 00:05:44;;;;;;;12.17;9.50;;;21.10;99.90;;;;;;5060451;28;20556;-91
2023/07/10 00:08:10;;;;;;;12.73;8.97;;;21.20;99.90;;;;;;5083469;28;20198;-91
2023/07/10 00:10:36;;;;;;;13.33;9.30;;;21.50;99.90;;;;;;5072857;28;20240;-90
2023/07/10 00:13:02;;;;;;;13.53;9.73;;;21.10;99.90;;;;;;5076323;28;20167;-91
2023/07/10 00:15:28;;;;;;;11.60;8.10;;;21.90;99.90;;;;;;5076801;28;20201;-91
2023/07/10 00:17:54;;;;;;;10.13;8.67;;;21.20;99.90;;;;;;5058209;28;20209;-91
2023/07/10 00:20:25;;;;;;;12.50;8.17;;;21.10;99.90;;;;;;5059223;28;20190;-90
2023/07/10 00:22:51;;;;;;;9.70;8.17;;;21.20;99.90;;;;;;5059120;28;20257;-91
2023/07/10 00:25:18;;;;;;;12.80;8.27;;;21.10;99.90;;;;;;5075724;28;20171;-90
2023/07/10 00:27:45;;;;;;;13.43;7.70;;;21.10;99.90;;;;;;5058063;28;20171;-90
2023/07/10 00:30:23;;;;;;;10.13;7.60;;;21.20;99.90;;;;;;5058860;28;20211;-91
2023/07/10 00:32:54;;;;;;;10.90;7.13;;;21.10;99.90;;;;;;5076765;28;20163;-90
2023/07/10 00:35:21;;;;;;;13.73;7.23;;;20.90;99.90;;;;;;5057155;28;20175;-90
2023/07/10 00:38:01;;;;;;;9.60;6.53;;;20.90;99.90;;;;;;5076123;28;20567;-90
2023/07/10 00:40:30;;;;;;;9.57;6.40;;;21.30;99.90;;;;;;5058850;28;20612;-90
2023/07/10 00:43:13;;;;;;;9.77;7.00;;;20.80;99.90;;;;;;5058543;28;20178;-90
2023/07/10 00:45:38;;;;;;;11.93;6.90;;;20.80;99.90;;;;;;5059539;28;20187;-91
2023/07/10 00:48:13;;;;;;;10.37;6.57;;;20.70;99.90;;;;;;5058752;28;20262;-90
2023/07/10 00:50:45;;;;;;;9.30;6.90;;;20.70;99.90;;;;;;5058886;28;20243;-91
2023/07/10 00:53:21;;;;;;;9.33;7.20;;;21.10;99.90;;;;;;5059722;28;20186;-90
2023/07/10 00:55:48;;;;;;;8.67;6.40;;;20.70;99.90;;;;;;5059346;28;20242;-90
2023/07/10 00:58:26;;;;;;;10.73;7.10;;;20.50;99.90;;;;;;5059488;28;20175;-90
2023/07/10 01:01:13;;;;;;;10.77;7.20;;;20.70;99.90;;;;;;5058801;28;20202;-91
2023/07/10 01:03:40;;;;;;;11.57;7.33;;;20.70;99.90;;;;;;5058857;28;20209;-90
2023/07/10 01:06:18;;;;;;;10.77;7.53;;;20.70;99.90;;;;;;5058775;28;20570;-90
2023/07/10 01:08:48;;;;;;;14.37;8.50;;;20.70;99.90;;;;;;5058155;28;20228;-91
2023/07/10 01:11:15;;;;;;;13.13;9.57;;;20.70;99.90;;;;;;5077023;28;20151;-91
2023/07/10 01:13:43;;;;;;;12.10;9.27;;;20.60;99.90;;;;;;5075971;28;20171;-91
2023/07/10 01:16:09;;;;;;;14.70;9.30;;;20.60;99.90;;;;;;5057958;28;20183;-91
2023/07/10 01:18:37;;;;;;;15.07;12.00;;;21.30;99.90;;;;;;5057753;28;20230;-91
2023/07/10 01:21:33;;;;;;;16.63;12.50;;;20.70;99.90;;;;;;5057469;28;20199;-90
2023/07/10 01:24:02;;;;;;;16.07;12.43;;;20.60;99.90;;;;;;5057809;28;20179;-91
2023/07/10 01:26:29;;;;;;;14.80;11.67;;;20.60;99.90;;;;;;5058152;28;20193;-90
2023/07/10 01:28:57;;;;;;;16.17;11.90;;;20.60;99.90;;;;;;5058163;28;20236;-91
2023/07/10 01:31:23;;;;;;;13.57;11.37;;;20.70;99.90;;;;;;5057767;28;20202;-90
2023/07/10 01:33:56;;;;;;;15.13;11.53;;;20.80;99.90;;;;;;5057852;28;20209;-91
2023/07/10 01:36:25;;;;;;;22.37;12.37;;;20.60;99.90;;;;;;5075891;28;20167;-90
2023/07/10 01:38:58;;;;;;;16.97;13.17;;;20.40;99.90;;;;;;5076009;28;20253;-90
2023/07/10 01:41:34;;;;;;;16.63;11.90;;;20.50;99.90;;;;;;5057977;28;20179;-90
2023/07/10 01:44:00;;;;;;;14.03;11.23;;;20.50;99.90;;;;;;5057690;28;20174;-90
2023/07/10 01:46:27;;;;;;;16.90;10.80;;;20.70;99.90;;;;;;5057617;28;20183;-91
2023/07/10 01:48:59;;;;;;;17.67;10.80;;;20.50;99.90;;;;;;5060907;28;20238;-91
2023/07/10 01:51:25;;;;;;;14.77;11.00;;;20.50;99.90;;;;;;5079242;28;20226;-91
2023/07/10 01:53:51;;;;;;;15.27;11.10;;;20.60;99.90;;;;;;5070913;28;20233;-91
2023/07/10 01:56:20;;;;;;;15.70;11.57;;;20.50;99.90;;;;;;5069987;28;20175;-91
2023/07/10 01:58:46;;;;;;;13.67;10.37;;;20.50;99.90;;;;;;5061791;28;20647;-91
2023/07/10 02:01:11;;;;;;;16.13;11.33;;;20.60;99.90;;;;;;5087445;28;20228;-91
2023/07/10 02:03:37;;;;;;;14.17;10.23;;;20.50;99.90;;;;;;5084360;28;20171;-91
2023/07/10 02:06:03;;;;;;;15.07;10.97;;;20.70;99.90;;;;;;5084364;28;20194;-90
2023/07/10 02:08:29;;;;;;;12.33;10.40;;;20.60;99.90;;;;;;5102110;28;20220;-91
2023/07/10 02:10:55;;;;;;;15.83;11.90;;;20.50;99.90;;;;;;5077672;28;20198;-91
2023/07/10 02:13:21;;;;;;;13.03;11.03;;;20.80;99.90;;;;;;5062190;28;20668;-91
2023/07/10 02:15:46;;;;;;;13.93;11.03;;;20.40;99.90;;;;;;5078823;28;20633;-91
2023/07/10 02:18:12;;;;;;;15.13;11.67;;;20.40;99.90;;;;;;5060429;28;20221;-90
2023/07/10 02:20:39;;;;;;;14.77;10.97;;;20.40;99.90;;;;;;5060812;28;20244;-91
2023/07/10 02:23:04;;;;;;;14.77;10.70;;;21.60;99.90;;;;;;5060098;28;20209;-91
2023/07/10 02:25:30;;;;;;;15.33;11.67;;;20.40;99.90;;;;;;5078445;28;20167;-91
2023/07/10 02:27:56;;;;;;;13.17;11.40;;;20.60;99.90;;;;;;5059942;28;20209;-91
2023/07/10 02:30:22;;;;;;;15.60;11.80;;;20.40;99.90;;;;;;5059855;28;20197;-91
2023/07/10 02:32:48;;;;;;;14.23;11.50;;;21.70;99.90;;;;;;5077786;28;20195;-91
2023/07/10 02:35:14;;;;;;;13.63;10.77;;;21.00;99.90;;;;;;5077818;28;20209;-91
2023/07/10 02:37:40;;;;;;;12.23;10.43;;;20.30;99.90;;;;;;5077870;28;20171;-91
2023/07/10 02:40:06;;;;;;;17.43;10.97;;;20.70;99.90;;;;;;5059282;28;20199;-90
2023/07/10 02:42:32;;;;;;;16.03;11.40;;;20.40;99.90;;;;;;5077466;28;20171;-91
2023/07/10 02:44:57;;;;;;;15.27;11.50;;;20.40;99.90;;;;;;5059646;28;20190;-91
2023/07/10 02:47:23;;;;;;;15.50;12.00;;;20.30;99.90;;;;;;5077535;28;20609;-91
2023/07/10 02:49:49;;;;;;;15.93;12.30;;;20.60;99.90;;;;;;5059806;28;20232;-91
2023/07/10 02:52:14;;;;;;;15.47;11.93;;;20.30;99.90;;;;;;5060551;28;20182;-91
2023/07/10 02:54:40;;;;;;;16.10;12.13;;;20.20;99.90;;;;;;5077754;28;20254;-90
2023/07/10 02:57:06;;;;;;;16.40;12.50;;;20.30;99.90;;;;;;5059705;28;20641;-91
2023/07/10 02:59:31;;;;;;;16.27;12.47;;;20.30;99.90;;;;;;5059144;28;20226;-90
2023/07/10 03:01:59;;;;;;;16.43;12.20;;;20.20;99.90;;;;;;5077192;28;20213;-91
2023/07/10 03:04:25;;;;;;;17.87;13.17;;;20.30;99.90;;;;;;5059705;28;20182;-91
2023/07/10 03:06:51;;;;;;;16.37;12.20;;;20.20;99.90;;;;;;5059756;28;20178;-91
2023/07/10 03:09:16;;;;;;;19.93;11.93;;;20.20;99.90;;;;;;5059546;28;20213;-91
2023/07/10 03:11:42;;;;;;;18.17;13.40;;;20.20;99.90;;;;;;5060236;28;20175;-91
2023/07/10 03:14:07;;;;;;;18.20;14.33;;;20.80;99.90;;;;;;5060150;28;20198;-91
2023/07/10 03:16:33;;;;;;;18.07;14.73;;;20.30;99.90;;;;;;5060262;28;20176;-91
2023/07/10 03:18:59;;;;;;;21.80;15.63;;;21.00;99.90;;;;;;5060081;28;20194;-91
2023/07/10 03:21:25;;;;;;;19.17;15.77;;;20.20;99.90;;;;;;5077504;28;20178;-91
2023/07/10 03:23:51;;;;;;;23.70;15.87;;;20.20;99.90;;;;;;5059716;28;20179;-90
2023/07/10 03:26:17;;;;;;;20.87;16.43;;;20.60;99.90;;;;;;5077530;28;20175;-90
2023/07/10 03:28:43;;;;;;;21.90;16.23;;;20.40;99.90;;;;;;5059164;28;20210;-91
2023/07/10 03:31:09;;;;;;;19.00;15.50;;;20.10;99.90;;;;;;5059582;28;20178;-91
2023/07/10 03:33:34;;;;;;;21.97;16.23;;;20.20;99.90;;;;;;5059787;28;20174;-91
2023/07/10 03:36:03;;;;;;;19.27;16.07;;;20.10;99.90;;;;;;5059286;28;20540;-90
2023/07/10 03:38:28;;;;;;;20.93;17.37;;;20.40;99.90;;;;;;5077630;28;20640;-91
2023/07/10 03:40:56;;;;;;;25.20;19.13;;;20.10;99.90;;;;;;5074371;28;20198;-91
2023/07/10 03:43:22;;;;;;;22.33;17.00;;;20.10;99.90;;;;;;5075779;28;20254;-91
2023/07/10 03:45:48;;;;;;;24.60;18.07;;;20.10;99.90;;;;;;5058612;28;20170;-90
2023/07/10 03:48:14;;;;;;;24.57;18.17;;;20.30;99.90;;;;;;5058565;28;20175;-91
2023/07/10 03:50:40;;;;;;;29.83;21.10;;;20.30;99.90;;;;;;5057937;28;20229;-91
2023/07/10 03:53:05;;;;;;;23.37;20.70;;;20.10;99.90;;;;;;5059067;28;20167;-91
2023/07/10 03:55:31;;;;;;;28.47;21.67;;;20.00;99.90;;;;;;5076641;28;20633;-91
2023/07/10 03:57:56;;;;;;;24.23;21.73;;;20.00;99.90;;;;;;5059423;28;20652;-91
2023/07/10 04:00:22;;;;;;;26.77;20.83;;;20.10;99.90;;;;;;5058728;28;20202;-90
2023/07/10 04:02:48;;;;;;;24.50;20.57;;;20.10;99.90;;;;;;5058556;28;20213;-90
2023/07/10 04:05:13;;;;;;;35.57;25.17;;;20.20;99.90;;;;;;5058669;28;20239;-90
2023/07/10 04:07:39;;;;;;;29.20;24.23;;;20.10;99.90;;;;;;5058804;28;20171;-90
2023/07/10 04:10:05;;;;;;;35.33;25.10;;;20.70;99.90;;;;;;5057363;28;20246;-91
2023/07/10 04:12:30;;;;;;;32.10;26.30;;;20.00;99.90;;;;;;5058304;28;20637;-91
2023/07/10 04:14:56;;;;;;;31.80;25.73;;;20.00;99.90;;;;;;5076147;28;20182;-91
2023/07/10 04:17:22;;;;;;;29.80;24.20;;;19.90;99.90;;;;;;5057881;28;20198;-91
2023/07/10 04:19:47;;;;;;;28.23;25.03;;;19.50;99.90;;;;;;5058463;28;20213;-90
2023/07/10 04:22:13;;;;;;;33.67;26.20;;;19.90;99.90;;;;;;5058210;28;20183;-91
2023/07/10 04:24:39;;;;;;;30.73;25.60;;;19.80;99.90;;;;;;5058310;28;20182;-91
2023/07/10 04:27:05;;;;;;;31.70;25.00;;;20.00;99.90;;;;;;5058160;28;20182;-91
2023/07/10 04:29:30;;;;;;;33.33;24.23;;;19.80;99.90;;;;;;5057856;28;20210;-91
2023/07/10 04:31:56;;;;;;;31.50;26.23;;;20.50;99.90;;;;;;5058510;28;20182;-90
2023/07/10 04:34:21;;;;;;;34.27;27.77;;;19.80;99.90;;;;;;5058088;28;20175;-91
2023/07/10 04:36:47;;;;;;;34.07;26.23;;;20.30;99.90;;;;;;5076243;28;20171;-90
2023/07/10 04:39:12;;;;;;;32.13;26.77;;;19.70;99.90;;;;;;5057440;28;20234;-91
2023/07/10 04:41:38;;;;;;;34.03;28.07;;;19.60;99.90;;;;;;5057574;28;20198;-91
2023/07/10 04:44:05;;;;;;;36.20;27.50;;;19.80;99.90;;;;;;5057286;28;20179;-90
2023/07/10 04:46:30;;;;;;;36.43;27.20;;;19.90;99.90;;;;;;5075223;28;20178;-90
2023/07/10 04:48:56;;;;;;;36.03;27.70;;;19.50;99.90;;;;;;5058045;28;20286;-90
2023/07/10 04:51:22;;;;;;;36.47;26.63;;;19.60;99.90;;;;;;5059544;28;20186;-90
2023/07/10 04:53:48;;;;;;;36.97;26.63;;;19.70;99.90;;;;;;5056905;28;20175;-91
2023/07/10 04:56:15;;;;;;;31.27;26.53;;;19.70;99.90;;;;;;5074717;28;20182;-90
2023/07/10 04:58:50;;;;;;;32.77;23.97;;;19.60;99.90;;;;;;5074947;28;20657;-90
2023/07/10 05:01:16;;;;;;;32.30;24.37;;;19.60;99.90;;;;;;5074837;28;20189;-90
2023/07/10 05:03:42;;;;;;;29.40;24.60;;;19.50;99.90;;;;;;5056502;28;20186;-90
2023/07/10 05:06:07;;;;;;;30.33;24.10;;;19.50;99.90;;;;;;5057406;28;20269;-90
2023/07/10 05:08:33;;;;;;;29.07;24.20;;;19.60;99.90;;;;;;5057578;28;20203;-90
2023/07/10 05:10:58;;;;;;;33.93;23.80;;;19.60;99.90;;;;;;5057526;28;20195;-90
2023/07/10 05:13:28;;;;;;;31.73;23.53;;;19.60;99.90;;;;;;5057311;28;20552;-90
2023/07/10 05:15:56;;;;;;;34.17;24.50;;;19.60;99.90;;;;;;5057155;28;20202;-90
2023/07/10 05:18:22;;;;;;;33.10;23.33;;;19.50;99.90;;;;;;5074847;28;20222;-90
2023/07/10 05:20:48;;;;;;;35.03;24.77;;;19.50;99.90;;;;;;5057176;28;20218;-90
2023/07/10 05:23:15;;;;;;;30.40;23.13;;;19.60;99.90;;;;;;5057806;28;20237;-90
2023/07/10 05:25:53;;;;;;;33.47;25.20;;;19.60;99.90;;;;;;5070994;28;20167;-90
2023/07/10 05:28:19;;;;;;;28.63;23.50;;;20.80;99.90;;;;;;5060368;28;20206;-90
2023/07/10 05:30:45;;;;;;;29.43;22.60;;;19.60;99.90;;;;;;5074606;28;20202;-90
2023/07/10 05:33:11;;;;;;;27.63;21.77;;;19.50;99.90;;;;;;5075088;28;20167;-90
2023/07/10 05:35:36;;;;;;;25.20;22.20;;;19.60;99.90;;;;;;5057382;28;20174;-90
2023/07/10 05:38:02;;;;;;;26.70;21.03;;;20.10;99.90;;;;;;5074699;28;20186;-90
2023/07/10 05:40:27;;;;;;;24.83;20.40;;;19.60;99.90;;;;;;5056908;28;20199;-90
2023/07/10 05:42:53;;;;;;;33.57;23.80;;;19.60;99.90;;;;;;5055356;28;20175;-90
2023/07/10 05:45:19;;;;;;;31.77;22.80;;;19.70;99.90;;;;;;5075172;28;20556;-90
2023/07/10 05:47:44;;;;;;;33.03;23.13;;;19.70;99.90;;;;;;5056701;28;20175;-90
2023/07/10 05:50:10;;;;;;;32.27;23.23;;;20.00;99.90;;;;;;5055315;28;20210;-90
2023/07/10 05:52:35;;;;;;;33.70;24.13;;;20.00;99.90;;;;;;5074615;28;20167;-90
2023/07/10 05:55:01;;;;;;;36.00;25.00;;;20.30;99.90;;;;;;5057132;28;20629;-90
2023/07/10 05:57:26;;;;;;;29.03;22.73;;;20.10;99.90;;;;;;5056336;28;20251;-90
2023/07/10 05:59:52;;;;;;;31.37;23.00;;;19.80;99.90;;;;;;5056300;28;20227;-90
2023/07/10 06:02:17;;;;;;;33.27;23.53;;;19.70;99.90;;;;;;5056442;28;20183;-90
2023/07/10 06:04:43;;;;;;;29.47;22.80;;;19.70;99.90;;;;;;5073832;28;20175;-90
2023/07/10 06:07:08;;;;;;;29.73;22.63;;;19.70;99.90;;;;;;5056178;28;20206;-90
2023/07/10 06:09:34;;;;;;;28.53;23.20;;;20.00;99.90;;;;;;5055771;28;20236;-90
2023/07/10 06:12:00;;;;;;;31.53;22.83;;;19.80;99.90;;;;;;5074571;28;20175;-90
2023/07/10 06:14:26;;;;;;;29.03;22.53;;;19.80;99.90;;;;;;5055691;28;20175;-90
2023/07/10 06:16:51;;;;;;;28.00;21.40;;;19.80;99.90;;;;;;5074260;28;20250;-90
2023/07/10 06:19:17;;;;;;;29.37;22.17;;;19.70;99.90;;;;;;5072929;28;20207;-90
2023/07/10 06:21:46;;;;;;;25.53;19.00;;;20.80;99.90;;;;;;5054584;28;20216;-90
2023/07/10 06:24:11;;;;;;;26.10;19.27;;;20.80;99.90;;;;;;5054957;28;20190;-90
2023/07/10 06:26:37;;;;;;;16.63;13.80;;;20.10;99.90;;;;;;5054806;28;20499;-90
2023/07/10 06:29:02;;;;;;;19.00;13.43;;;20.10;99.90;;;;;;5054513;28;20215;-90
2023/07/10 06:31:28;;;;;;;16.73;13.00;;;19.80;99.90;;;;;;5055014;28;20179;-90
2023/07/10 06:33:53;;;;;;;16.27;12.53;;;19.90;99.90;;;;;;5074961;28;20178;-91
2023/07/10 06:36:19;;;;;;;17.93;11.87;;;20.10;99.90;;;;;;5058491;28;20178;-91
2023/07/10 06:38:44;;;;;;;17.63;10.53;;;19.80;99.90;;;;;;5076864;28;20290;-90
2023/07/10 06:41:12;;;;;;;18.13;10.67;;;20.00;99.90;;;;;;5058464;28;20179;-90
2023/07/10 06:43:37;;;;;;;14.57;10.37;;;20.10;99.90;;;;;;5057854;28;20230;-90
2023/07/10 06:46:03;;;;;;;16.87;11.27;;;19.90;99.90;;;;;;5057669;28;20592;-90
2023/07/10 06:48:29;;;;;;;11.73;10.43;;;20.00;99.90;;;;;;5076265;28;20199;-90
2023/07/10 06:50:55;;;;;;;15.13;10.30;;;19.80;99.90;;;;;;5057604;28;20554;-90
2023/07/10 06:53:23;;;;;;;12.70;10.03;;;19.80;99.90;;;;;;5075505;28;20179;-90
2023/07/10 06:56:00;;;;;;;15.37;9.43;;;19.90;99.90;;;;;;5076189;28;20178;-90
2023/07/10 06:58:26;;;;;;;15.23;9.27;;;19.80;99.90;;;;;;5076298;28;20333;-90
2023/07/10 07:00:53;;;;;;;12.70;9.47;;;20.00;99.90;;;;;;5057951;28;20209;-90
2023/07/10 07:03:18;;;;;;;14.13;8.53;;;20.10;99.90;;;;;;5057887;28;20187;-90
2023/07/10 07:05:44;;;;;;;13.77;8.33;;;20.10;99.90;;;;;;5076030;28;20271;-90
2023/07/10 07:08:10;;;;;;;15.97;8.40;;;20.20;99.90;;;;;;5075414;28;20182;-90
2023/07/10 07:10:43;;;;;;;11.80;7.57;;;20.30;99.90;;;;;;5057976;28;20281;-90
2023/07/10 07:13:09;;;;;;;10.00;6.10;;;20.40;99.90;;;;;;5057949;28;20211;-90
2023/07/10 07:15:35;;;;;;;9.47;5.50;;;20.40;99.90;;;;;;5075266;28;20167;-90
2023/07/10 07:18:03;;;;;;;8.47;5.83;;;20.30;99.90;;;;;;5075525;28;20260;-90
2023/07/10 07:20:29;;;;;;;11.00;5.60;;;20.30;1.00;;;;;;5057342;28;20195;-90
2023/07/10 07:22:54;;;;;;;10.20;4.77;;;20.20;1.00;;;;;;5057804;28;20258;-90
2023/07/10 07:25:20;;;;;;;11.70;5.63;;;20.20;22.00;;;;;;5058205;28;20681;-89
2023/07/10 07:27:46;;;;;;;7.27;4.47;;;20.40;70.50;;;;;;5057683;28;20258;-90
2023/07/10 07:30:11;;;;;;;7.13;4.40;;;20.40;1.00;;;;;;5075427;28;20611;-90
2023/07/10 07:32:37;;;;;;;5.17;3.87;;;20.40;1.00;;;;;;5056975;28;20575;-90
2023/07/10 07:35:03;;;;;;;7.40;3.47;;;20.40;1.00;;;;;;5075932;28;20631;-90
2023/07/10 07:37:28;;;;;;;4.97;3.43;;;20.50;1.00;;;;;;5057116;28;20174;-90
2023/07/10 07:39:56;;;;;;;6.23;3.53;;;20.50;1.00;;;;;;5057936;28;20202;-90
2023/07/10 07:42:21;;;;;;;6.70;3.50;;;20.60;1.00;;;;;;5057946;28;20235;-90
2023/07/10 07:44:47;;;;;;;7.23;3.97;;;20.70;1.00;;;;;;5056040;28;20178;-90
2023/07/10 07:47:13;;;;;;;6.70;3.80;;;20.60;1.00;;;;;;5056932;28;20279;-90
2023/07/10 07:49:39;;;;;;;8.77;3.97;;;20.70;1.00;;;;;;5057535;28;20264;-90
2023/07/10 07:52:05;;;;;;;10.77;4.87;;;20.70;1.00;;;;;;5075849;28;20680;-91
2023/07/10 07:54:30;;;;;;;7.67;4.13;;;20.70;1.00;;;;;;5057687;28;20198;-91
2023/07/10 07:56:56;;;;;;;9.70;4.43;;;20.70;1.00;;;;;;5074595;28;20171;-91
2023/07/10 07:59:22;;;;;;;8.33;4.17;;;20.80;1.00;;;;;;5058189;28;20573;-91
2023/07/10 08:01:49;;;;;;;10.07;3.13;;;20.80;1.00;;;;;;5056911;28;20197;-90
2023/07/10 08:04:16;;;;;;;9.00;4.13;;;21.20;1.00;;;;;;5057285;28;20266;-91
2023/07/10 08:06:41;;;;;;;5.33;2.93;;;21.20;1.00;;;;;;5074787;28;20171;-91
2023/07/10 08:09:07;;;;;;;7.93;2.83;;;21.10;1.00;;;;;;5056250;28;20626;-90
2023/07/10 08:11:33;;;;;;;5.37;3.80;;;21.30;1.00;;;;;;5074722;28;20182;-91
2023/07/10 08:13:58;;;;;;;7.53;3.07;;;21.20;1.00;;;;;;5056754;28;20190;-91
2023/07/10 08:16:24;;;;;;;4.77;2.37;;;21.50;1.00;;;;;;5056188;28;20202;-91
2023/07/10 08:18:50;;;;;;;6.50;2.40;;;21.50;1.00;;;;;;5074689;28;20194;-90
2023/07/10 08:21:17;;;;;;;3.50;1.93;;;21.30;99.90;;;;;;5057158;28;20496;-90
2023/07/10 08:23:42;;;;;;;3.97;2.03;;;21.50;1.00;;;;;;5074504;28;20175;-90
2023/07/10 08:26:08;;;;;;;6.77;2.20;;;21.40;99.90;;;;;;5056992;28;20178;-90
2023/07/10 08:28:34;;;;;;;6.00;2.50;;;21.50;99.90;;;;;;5074297;28;20283;-90
2023/07/10 08:31:00;;;;;;;2.73;1.70;;;21.50;99.90;;;;;;5073740;28;20699;-90
2023/07/10 08:33:26;;;;;;;4.27;2.53;;;21.70;99.90;;;;;;5056012;28;20171;-91
2023/07/10 08:36:00;;;;;;;5.87;2.10;;;21.60;99.90;;;;;;5056262;28;20175;-90
2023/07/10 08:38:25;;;;;;;4.90;1.80;;;21.60;99.90;;;;;;5055777;28;20175;-90
2023/07/10 08:40:55;;;;;;;4.07;1.80;;;21.60;99.90;;;;;;5073564;28;20538;-91
2023/07/10 08:43:37;;;;;;;5.13;1.43;;;21.70;99.90;;;;;;5056519;28;20178;-90
2023/07/10 08:46:14;;;;;;;4.27;1.30;;;21.80;68.60;;;;;;5074199;28;20159;-90
2023/07/10 08:48:48;;;;;;;3.83;1.50;;;21.80;99.90;;;;;;5073592;28;20215;-91
2023/07/10 08:51:27;;;;;;;3.50;1.80;;;21.90;16.40;;;;;;5056021;28;20163;-91
2023/07/10 08:54:13;;;;;;;4.07;1.47;;;22.00;97.40;;;;;;5056312;28;20182;-91
2023/07/10 08:57:01;;;;;;;2.60;1.23;;;22.10;99.90;;;;;;5055068;28;20175;-90
2023/07/10 08:59:54;;;;;;;3.03;1.47;;;22.10;39.00;;;;;;5073912;28;20191;-91
2023/07/10 09:02:43;;;;;;;4.67;1.50;;;22.10;43.00;;;;;;5073630;28;20177;-90
2023/07/10 09:05:16;;;;;;;4.60;1.80;;;22.20;7.70;;;;;;5055370;28;20171;-91
2023/07/10 09:07:44;;;;;;;3.30;1.70;;;22.30;88.70;;;;;;5055568;28;20171;-91
2023/07/10 09:10:19;;;;;;;5.30;2.07;;;22.50;74.80;;;;;;5055469;28;20203;-91
2023/07/10 09:12:51;;;;;;;5.53;1.47;;;22.60;99.90;;;;;;5055567;28;20249;-91
2023/07/10 09:15:25;;;;;;;3.10;1.70;;;22.40;67.40;;;;;;5056153;28;20179;-91
2023/07/10 09:18:09;;;;;;;2.70;1.47;;;22.40;99.90;;;;;;5055898;28;20182;-91
2023/07/10 09:20:37;;;;;;;4.00;1.57;;;22.40;34.80;;;;;;5073633;28;20271;-91
2023/07/10 09:23:31;;;;;;;3.60;1.60;;;22.50;93.40;;;;;;5073513;28;20671;-91
2023/07/10 09:26:05;;;;;;;5.93;1.43;;;22.70;91.40;;;;;;5055758;28;20175;-91
2023/07/10 09:28:31;;;;;;;3.20;1.70;;;22.60;99.90;;;;;;5055235;28;20190;-91
2023/07/10 09:31:09;;;;;;;6.27;1.67;;;22.70;84.70;;;;;;5056602;28;20195;-91
2023/07/10 09:33:51;;;;;;;4.23;1.60;;;22.90;1.00;;;;;;5057108;28;20170;-91
2023/07/10 09:36:18;;;;;;;4.03;1.80;;;22.90;1.00;;;;;;5055278;28;20177;-91
2023/07/10 09:38:45;;;;;;;4.30;1.70;;;22.80;1.00;;;;;;5055388;28;20228;-91
2023/07/10 09:41:17;;;;;;;6.07;1.97;;;23.00;1.00;;;;;;5055436;28;20655;-91
2023/07/10 09:44:02;;;;;;;3.80;1.30;;;23.00;1.00;;;;;;5055522;28;20552;-91
2023/07/10 09:46:35;;;;;;;3.30;1.50;;;23.10;1.00;;;;;;5055495;28;20167;-90
2023/07/10 09:49:09;;;;;;;4.43;1.60;;;23.20;1.00;;;;;;5055778;28;20194;-91
2023/07/10 09:51:36;;;;;;;3.80;1.80;;;23.20;1.00;;;;;;5056266;28;20212;-91
2023/07/10 09:54:06;;;;;;;6.33;1.97;;;23.40;1.00;;;;;;5055850;28;20261;-91
2023/07/10 09:56:37;;;;;;;3.83;2.10;;;23.40;1.00;;;;;;5055205;28;20544;-91
2023/07/10 09:59:24;;;;;;;5.33;1.30;;;23.40;1.00;;;;;;5055255;28;20243;-91
2023/07/10 10:01:52;;;;;;;3.53;1.40;;;23.50;1.00;;;;;;5055237;28;20168;-91
2023/07/10 10:04:22;;;;;;;3.50;1.30;;;23.50;1.00;;;;;;5055546;28;20225;-91
2023/07/10 10:06:56;;;;;;;5.17;1.67;;;23.50;1.00;;;;;;5055515;28;20248;-91
2023/07/10 10:09:23;;;;;;;3.43;1.47;;;23.60;1.00;;;;;;5076715;28;20215;-90
2023/07/10 10:11:54;;;;;;;3.27;1.47;;;23.50;1.00;;;;;;5076887;28;20175;-90
2023/07/10 10:14:30;;;;;;;4.30;1.67;;;23.80;1.00;;;;;;5076612;28;20186;-90
2023/07/10 10:16:59;;;;;;;3.87;1.50;;;23.70;1.00;;;;;;5058729;28;20170;-90
2023/07/10 10:19:31;;;;;;;4.93;1.60;;;23.90;1.00;;;;;;5059071;28;20662;-90
2023/07/10 10:21:57;;;;;;;4.70;1.63;;;23.80;1.00;;;;;;5058952;28;20171;-91
2023/07/10 10:24:27;;;;;;;8.37;2.60;;;23.70;1.00;;;;;;5077425;28;20236;-91
2023/07/10 10:27:03;;;;;;;4.20;1.80;;;24.00;1.00;;;;;;5077037;28;20185;-91
2023/07/10 10:29:47;;;;;;;3.27;1.93;;;23.90;1.00;;;;;;5058389;28;20210;-92
2023/07/10 10:32:13;;;;;;;4.10;1.60;;;23.90;1.00;;;;;;5058727;28;20194;-91
2023/07/10 10:35:19;;;;;;;7.17;1.70;;;23.90;1.00;;;;;;5076860;28;20167;-91
2023/07/10 10:38:14;;;;;;;3.77;1.37;;;23.90;1.00;;;;;;5010316;28;20183;-91
2023/07/10 10:40:59;;;;;;;2.67;1.20;;;24.00;1.00;;;;;;5038022;28;20313;-90
2023/07/10 10:43:37;;;;;;;2.77;1.50;;;24.20;1.00;;;;;;5076698;28;20155;-91
2023/07/10 10:46:14;;;;;;;4.17;1.20;;;24.20;1.00;;;;;;5058243;28;20195;-91
2023/07/10 10:48:58;;;;;;;4.13;1.80;;;24.30;1.00;;;;;;5058916;28;20233;-91
2023/07/10 10:51:33;;;;;;;3.77;1.70;;;24.20;99.90;;;;;;5075954;28;20628;-91
2023/07/10 10:54:18;;;;;;;3.43;1.50;;;24.20;1.00;;;;;;5058565;28;20212;-91
2023/07/10 10:56:53;;;;;;;4.13;1.50;;;24.20;99.90;;;;;;5058834;28;20166;-91
2023/07/10 10:59:42;;;;;;;7.03;1.80;;;24.20;1.00;;;;;;5058294;28;20194;-91
2023/07/10 11:02:20;;;;;;;5.57;2.10;;;24.30;1.00;;;;;;5057558;28;20167;-91
2023/07/10 11:04:56;;;;;;;5.70;1.67;;;24.20;1.00;;;;;;5057525;28;20271;-91
2023/07/10 11:07:23;;;;;;;6.30;1.87;;;24.30;99.90;;;;;;5057325;28;20686;-90
2023/07/10 11:09:56;;;;;;;5.60;1.50;;;24.30;1.00;;;;;;5057379;28;20579;-91
2023/07/10 11:12:25;;;;;;;4.47;1.80;;;24.40;1.00;;;;;;5057877;28;20256;-91
2023/07/10 11:14:55;;;;;;;2.67;1.20;;;24.70;1.00;;;;;;5057355;28;20175;-91
2023/07/10 11:17:22;;;;;;;3.00;1.23;;;24.50;99.90;;;;;;5057221;28;20292;-91
2023/07/10 11:19:49;;;;;;;3.20;1.40;;;24.50;1.00;;;;;;5074764;28;20195;-91
2023/07/10 11:22:29;;;;;;;3.90;1.20;;;24.50;99.90;;;;;;5057005;28;20225;-91
2023/07/10 11:24:55;;;;;;;7.30;1.70;;;24.60;1.00;;;;;;5074740;28;20159;-90
2023/07/10 11:27:33;;;;;;;4.00;1.43;;;24.70;99.90;;;;;;5074734;28;20537;-90
2023/07/10 11:30:07;;;;;;;4.33;1.47;;;24.80;99.90;;;;;;5057410;28;20297;-91
2023/07/10 11:32:53;;;;;;;6.40;1.90;;;24.80;99.90;;;;;;5058138;28;20537;-91
2023/07/10 11:35:20;;;;;;;5.07;1.63;;;24.90;1.00;;;;;;5075124;28;20290;-91
2023/07/10 11:37:49;;;;;;;3.03;1.20;;;25.10;99.90;;;;;;5075242;28;20171;-91
2023/07/10 11:40:26;;;;;;;3.00;1.40;;;25.00;99.90;;;;;;5056773;28;20198;-91
2023/07/10 11:42:52;;;;;;;4.57;1.30;;;25.20;99.90;;;;;;5056864;28;20181;-91
2023/07/10 11:45:18;;;;;;;3.45;1.25;;;25.30;99.90;;;;;;5056689;28;20175;-91
2023/07/10 11:47:44;;;;;;;3.92;1.20;;;25.40;79.00;;;;;;5075750;28;20632;-91
2023/07/10 11:50:16;;;;;;;2.35;1.33;;;25.20;99.90;;;;;;5075050;28;20222;-91
2023/07/10 11:52:42;;;;;;;3.95;1.40;;;25.40;99.90;;;;;;5057529;28;20244;-91
2023/07/10 11:55:11;;;;;;;4.38;1.48;;;25.40;1.00;;;;;;5074750;28;20641;-92
2023/07/10 11:57:37;;;;;;;4.57;1.60;;;25.40;99.90;;;;;;5056757;28;20171;-91
2023/07/10 12:00:20;;;;;;;4.28;1.40;;;25.60;99.90;;;;;;5056294;28;20526;-91
2023/07/10 12:02:57;;;;;;;7.22;1.25;;;25.60;99.90;;;;;;5074353;28;20163;-91
2023/07/10 12:05:38;;;;;;;6.35;1.77;;;25.70;58.70;;;;;;5074311;28;20276;-91
2023/07/10 12:08:07;;;;;;;4.03;1.38;;;25.80;99.90;;;;;;5056552;28;20175;-91
2023/07/10 12:10:39;;;;;;;4.03;1.55;;;25.90;99.90;;;;;;5074173;28;20206;-91
2023/07/10 12:13:17;;;;;;;3.40;1.55;;;25.90;1.00;;;;;;5074146;28;20162;-91
2023/07/10 12:15:45;;;;;;;6.93;1.58;;;26.00;97.80;;;;;;5056069;28;20166;-91
2023/07/10 12:18:15;;;;;;;4.88;1.65;;;26.00;99.90;;;;;;5055654;28;20563;-91
2023/07/10 12:20:42;;;;;;;3.10;1.20;;;26.00;1.00;;;;;;5074103;28;20186;-90
2023/07/10 12:23:13;;;;;;;6.70;1.73;;;26.00;1.00;;;;;;5055748;28;20652;-90
2023/07/10 12:25:49;;;;;;;4.82;2.08;;;25.90;37.00;;;;;;5055464;28;20201;-91
2023/07/10 12:28:17;;;;;;;4.25;1.45;;;26.10;1.00;;;;;;5056724;28;20166;-91
2023/07/10 12:30:47;;;;;;;3.75;1.40;;;26.10;99.90;;;;;;5073258;28;20198;-90
2023/07/10 12:33:36;;;;;;;3.42;1.60;;;26.20;99.90;;;;;;5074045;28;20652;-90
2023/07/10 12:36:13;;;;;;;4.82;1.60;;;26.20;1.00;;;;;;5074019;28;20154;-90
2023/07/10 12:38:39;;;;;;;3.90;1.70;;;26.00;1.00;;;;;;5073851;28;20244;-91
2023/07/10 12:41:07;;;;;;;4.10;1.45;;;26.20;1.00;;;;;;5073779;28;20674;-91
2023/07/10 12:43:33;;;;;;;4.80;1.55;;;26.20;99.90;;;;;;5073809;28;20224;-91
2023/07/10 12:46:01;;;;;;;6.38;1.55;;;26.20;1.00;;;;;;5073485;28;20171;-91
2023/07/10 12:48:31;;;;;;;3.95;1.30;;;26.30;1.00;;;;;;5073456;28;20175;-91